Terminal Aerodrome Forecast
Issued by NWS Sioux Falls, SD

Home | Current Version | Previous Version | Text Only | Print | Product List | Glossary Off
Versions: 1 2 3 4 5 6 7 8 9 10 11 12 13 14 15 16 17 18 19 20 21 22 23 24 25 26 27

000
FTUS43 KFSD 021122
TAFFSD
TAF
KFSD 021122Z 0212/0312 30004KT P6SM BKN009
      TEMPO 0212/0213 4SM -FZDZ BR OVC006
     FM021400 30004KT P6SM BKN015
     FM022100 30005KT P6SM BKN025
     FM030600 VRB02KT P6SM BKN035=

USA.gov is the U.S. government's official web portal to all federal, state and local government web resources and services.